createdAt,value
2022-12-11T00:01:19.712Z,1.70
2022-12-11T00:03:49.206Z,0.70
2022-12-11T00:06:22.232Z,2.45
2022-12-11T00:08:53.617Z,2.13
2022-12-11T00:11:23.385Z,4.85
2022-12-11T00:13:52.489Z,1.25
2022-12-11T00:16:26.572Z,0.73
2022-12-11T00:18:55.875Z,2.05
2022-12-11T00:21:26.181Z,1.05
2022-12-11T00:23:55.114Z,1.33
2022-12-11T00:26:24.048Z,1.13
2022-12-11T00:28:54.901Z,1.77
2022-12-11T00:31:25.047Z,1.02
2022-12-11T00:33:54.123Z,1.20
2022-12-11T00:36:26.664Z,2.17
2022-12-11T00:38:55.972Z,1.52
2022-12-11T00:41:24.847Z,2.58
2022-12-11T00:43:53.725Z,2.42
2022-12-11T00:46:22.624Z,1.67
2022-12-11T00:48:51.628Z,1.67
2022-12-11T00:51:20.886Z,1.67
2022-12-11T00:53:51.138Z,1.02
2022-12-11T00:56:23.075Z,1.48
2022-12-11T00:58:51.947Z,1.25
2022-12-11T01:01:23.280Z,1.50
2022-12-11T01:03:54.768Z,1.08
2022-12-11T01:06:26.312Z,2.25
2022-12-11T01:09:11.572Z,1.33
2022-12-11T01:11:41.160Z,0.88
2022-12-11T01:14:11.154Z,2.58
2022-12-11T01:16:40.306Z,1.45
2022-12-11T01:19:09.204Z,1.08
2022-12-11T01:21:38.063Z,1.92
2022-12-11T01:24:08.512Z,1.23
2022-12-11T01:26:37.483Z,3.10
2022-12-11T01:29:06.349Z,1.52
2022-12-11T01:31:35.151Z,2.40
2022-12-11T01:34:04.125Z,1.92
2022-12-11T01:36:33.096Z,1.50
2022-12-11T01:39:01.982Z,1.17
2022-12-11T01:41:32.197Z,1.38
2022-12-11T01:44:05.759Z,1.83
2022-12-11T01:46:36.200Z,1.55
2022-12-11T01:49:08.527Z,1.40
2022-12-11T01:51:42.333Z,1.35
2022-12-11T01:54:14.799Z,1.58
2022-12-11T01:56:47.302Z,2.35
2022-12-11T01:59:18.906Z,2.60
2022-12-11T02:01:52.195Z,0.75
2022-12-11T02:04:22.064Z,0.95
2022-12-11T02:06:53.090Z,0.60
2022-12-11T02:09:25.403Z,2.00
2022-12-11T02:12:04.722Z,1.60
2022-12-11T02:14:40.236Z,1.80
2022-12-11T02:17:15.286Z,2.20
2022-12-11T02:19:56.015Z,1.02
2022-12-11T02:22:35.249Z,0.60
2022-12-11T02:25:16.355Z,0.95
2022-12-11T02:27:49.797Z,0.55
2022-12-11T02:30:20.271Z,0.80
2022-12-11T02:32:53.426Z,0.20
2022-12-11T02:35:27.332Z,0.70
2022-12-11T02:37:59.219Z,0.70
2022-12-11T02:40:31.474Z,0.45
2022-12-11T02:43:04.001Z,0.35
2022-12-11T02:45:35.755Z,0.70
2022-12-11T02:48:07.203Z,1.02
2022-12-11T02:50:38.836Z,0.50
2022-12-11T02:53:08.276Z,0.68
2022-12-11T02:55:39.607Z,1.00
2022-12-11T02:58:15.859Z,6.70
2022-12-11T03:00:48.026Z,4.00
2022-12-11T03:03:17.231Z,1.27
2022-12-11T03:05:46.835Z,0.77
2022-12-11T03:08:18.742Z,4.57
2022-12-11T03:10:48.118Z,3.75
2022-12-11T03:13:21.430Z,3.03
2022-12-11T03:16:02.059Z,1.88
2022-12-11T03:18:36.391Z,3.45
2022-12-11T03:21:09.385Z,1.08
2022-12-11T03:23:45.319Z,1.40
2022-12-11T03:26:16.722Z,0.60
2022-12-11T03:28:51.108Z,1.05
2022-12-11T03:31:27.208Z,0.83
2022-12-11T03:33:59.188Z,0.85
2022-12-11T03:36:33.773Z,0.57
2022-12-11T03:39:07.197Z,1.25
2022-12-11T03:41:39.647Z,1.35
2022-12-11T03:44:09.981Z,0.68
2022-12-11T03:46:41.921Z,0.70
2022-12-11T03:49:16.531Z,0.40
2022-12-11T03:51:47.881Z,1.15
2022-12-11T03:54:18.239Z,0.77
2022-12-11T03:56:47.984Z,1.27
2022-12-11T03:59:16.876Z,1.20
2022-12-11T04:01:47.155Z,0.85
2022-12-11T04:04:16.125Z,1.98
2022-12-11T04:06:45.117Z,2.63
2022-12-11T04:09:14.101Z,2.95
2022-12-11T04:11:43.066Z,2.22
2022-12-11T04:14:31.689Z,2.70
2022-12-11T04:17:02.127Z,4.47
2022-12-11T04:19:48.783Z,15.00
2022-12-11T04:22:36.961Z,28.58
2022-12-11T04:25:08.296Z,23.27
2022-12-11T04:27:53.080Z,70.93
2022-12-11T04:30:26.908Z,23.55
2022-12-11T04:33:00.012Z,15.90
2022-12-11T04:35:29.262Z,10.63
2022-12-11T04:37:58.645Z,7.38
2022-12-11T04:40:27.461Z,5.45
2022-12-11T04:42:56.286Z,3.67
2022-12-11T04:45:25.135Z,5.43
2022-12-11T04:47:53.992Z,12.55
2022-12-11T04:50:24.272Z,17.10
2022-12-11T04:52:56.309Z,10.23
2022-12-11T04:55:25.280Z,8.63
2022-12-11T04:57:54.087Z,4.03
2022-12-11T05:00:23.242Z,4.05
2022-12-11T05:02:52.168Z,5.47
2022-12-11T05:05:21.595Z,5.20
2022-12-11T05:07:51.880Z,11.13
2022-12-11T05:10:20.881Z,6.18
2022-12-11T05:12:49.756Z,4.88
2022-12-11T05:15:18.982Z,3.92
2022-12-11T05:17:47.871Z,10.90
2022-12-11T05:20:16.885Z,21.33
2022-12-11T05:22:45.696Z,13.82
2022-12-11T05:25:15.917Z,10.65
2022-12-11T05:27:45.029Z,8.77
2022-12-11T05:30:14.182Z,7.72
2022-12-11T05:32:42.993Z,7.13
2022-12-11T05:35:12.228Z,6.95
2022-12-11T05:37:41.754Z,8.32
2022-12-11T05:40:12.972Z,6.75
2022-12-11T05:42:43.273Z,5.90
2022-12-11T05:45:12.882Z,7.10
2022-12-11T05:47:41.963Z,7.43
2022-12-11T05:50:11.920Z,8.13
2022-12-11T05:52:40.776Z,9.95
2022-12-11T05:55:10.791Z,6.27
2022-12-11T05:57:39.836Z,6.32
2022-12-11T06:00:13.321Z,11.30
2022-12-11T06:02:42.275Z,12.82
2022-12-11T06:05:11.454Z,12.23
2022-12-11T06:07:40.496Z,15.05
2022-12-11T06:10:10.588Z,11.60
2022-12-11T06:12:39.510Z,10.52
2022-12-11T06:15:11.193Z,8.18
2022-12-11T06:17:40.176Z,7.30
2022-12-11T06:20:10.167Z,9.02
2022-12-11T06:22:38.970Z,8.50
2022-12-11T06:25:09.917Z,10.57
2022-12-11T06:27:38.982Z,18.25
2022-12-11T06:30:11.483Z,13.77
2022-12-11T06:32:40.351Z,13.15
2022-12-11T06:35:10.184Z,14.35
2022-12-11T06:37:40.416Z,11.25
2022-12-11T06:40:11.728Z,2.47
2022-12-11T06:42:40.565Z,3.58
2022-12-11T06:45:12.322Z,4.72
2022-12-11T06:47:41.405Z,12.68
2022-12-11T06:50:11.075Z,21.45
2022-12-11T06:52:40.105Z,11.55
2022-12-11T06:55:09.771Z,8.27
2022-12-11T06:57:38.931Z,10.50
2022-12-11T07:00:10.861Z,9.18
2022-12-11T07:02:39.752Z,10.48
2022-12-11T07:05:09.491Z,12.80
2022-12-11T07:07:38.605Z,11.95
2022-12-11T07:10:08.870Z,12.73
2022-12-11T07:12:38.555Z,14.93
2022-12-11T07:15:08.627Z,10.82
2022-12-11T07:17:39.219Z,10.10
2022-12-11T07:20:09.237Z,10.63
2022-12-11T07:22:44.673Z,9.27
2022-12-11T07:25:16.342Z,8.02
2022-12-11T07:27:45.129Z,5.30
2022-12-11T07:30:15.781Z,2.97
2022-12-11T07:32:46.121Z,4.28
2022-12-11T07:35:15.083Z,2.97
2022-12-11T07:37:45.002Z,5.35
2022-12-11T07:40:14.803Z,4.95
2022-12-11T07:42:46.277Z,3.47
2022-12-11T07:45:15.360Z,4.03
2022-12-11T07:47:45.620Z,5.25
2022-12-11T07:50:14.526Z,4.10
2022-12-11T07:52:43.354Z,4.75
2022-12-11T07:55:12.497Z,2.15
2022-12-11T07:57:41.523Z,2.22
2022-12-11T08:00:12.049Z,1.20
2022-12-11T08:02:43.449Z,0.98
2022-12-11T08:05:13.924Z,1.80
2022-12-11T08:07:42.937Z,3.17
2022-12-11T08:10:11.822Z,6.43
2022-12-11T08:12:40.676Z,6.03
2022-12-11T08:15:10.848Z,4.07
2022-12-11T08:17:40.273Z,2.22
2022-12-11T08:20:10.118Z,3.55
2022-12-11T08:22:40.424Z,3.97
2022-12-11T08:25:12.811Z,2.97
2022-12-11T08:27:42.297Z,7.55
2022-12-11T08:30:12.667Z,6.20
2022-12-11T08:32:41.875Z,7.53
2022-12-11T08:35:11.213Z,4.55
2022-12-11T08:37:41.697Z,3.63
2022-12-11T08:40:12.360Z,2.10
2022-12-11T08:42:41.225Z,2.60
2022-12-11T08:45:11.428Z,1.67
2022-12-11T08:47:40.545Z,4.68
2022-12-11T08:50:09.932Z,1.58
2022-12-11T08:52:38.782Z,2.35
2022-12-11T08:55:10.087Z,4.18
2022-12-11T08:57:39.792Z,2.53
2022-12-11T09:00:12.402Z,1.70
2022-12-11T09:02:41.353Z,1.85
2022-12-11T09:05:10.671Z,2.05
2022-12-11T09:07:39.707Z,1.55
2022-12-11T09:10:11.296Z,2.22
2022-12-11T09:12:40.202Z,2.45
2022-12-11T09:15:09.950Z,3.58
2022-12-11T09:17:39.165Z,8.48
2022-12-11T09:20:09.140Z,7.28
2022-12-11T09:22:37.957Z,7.88
2022-12-11T09:25:08.009Z,7.10
2022-12-11T09:27:38.328Z,4.72
2022-12-11T09:30:08.847Z,4.20
2022-12-11T09:32:37.688Z,4.95
2022-12-11T09:35:07.836Z,5.00
2022-12-11T09:37:36.762Z,4.60
2022-12-11T09:40:07.937Z,5.22
2022-12-11T09:42:52.055Z,4.75
2022-12-11T09:45:21.767Z,4.40
2022-12-11T09:47:53.239Z,5.40
2022-12-11T09:50:25.297Z,8.02
2022-12-11T09:53:04.681Z,8.65
2022-12-11T09:55:39.919Z,8.35
2022-12-11T10:03:45.486Z,4.95
2022-12-11T10:06:20.435Z,6.55
2022-12-11T10:09:02.881Z,6.05
2022-12-11T10:11:56.888Z,9.13
2022-12-11T10:14:38.058Z,8.23
2022-12-11T10:17:13.528Z,6.57
2022-12-11T10:19:43.340Z,4.68
2022-12-11T10:22:19.804Z,5.05
2022-12-11T10:25:12.197Z,3.33
2022-12-11T10:27:43.543Z,1.30
2022-12-11T10:30:18.912Z,2.75
2022-12-11T10:32:53.965Z,1.73
2022-12-11T10:35:31.167Z,1.60
2022-12-11T10:38:16.294Z,0.60
2022-12-11T10:40:47.351Z,1.20
2022-12-11T10:43:16.609Z,1.05
2022-12-11T10:45:53.627Z,1.00
2022-12-11T10:48:23.674Z,1.05
2022-12-11T10:51:03.240Z,0.75
2022-12-11T10:53:33.615Z,0.95
2022-12-11T10:56:03.552Z,0.40
2022-12-11T10:58:35.196Z,0.20
2022-12-11T11:01:09.597Z,0.17
2022-12-11T11:03:52.759Z,0.35
2022-12-11T11:06:23.459Z,0.47
2022-12-11T11:08:54.312Z,0.38
2022-12-11T11:11:27.031Z,0.45
2022-12-11T11:14:07.684Z,0.30
2022-12-11T11:16:40.401Z,0.40
2022-12-11T11:19:17.656Z,0.38
2022-12-11T11:21:51.307Z,0.80
2022-12-11T11:24:27.749Z,0.55
2022-12-11T11:27:12.737Z,0.30
2022-12-11T11:29:43.337Z,1.60
2022-12-11T11:32:21.396Z,2.53
2022-12-11T11:34:50.236Z,1.33
2022-12-11T11:37:31.381Z,0.73
2022-12-11T11:40:08.052Z,0.68
2022-12-11T11:42:44.854Z,0.40
2022-12-11T11:45:18.204Z,0.57
2022-12-11T11:47:56.819Z,0.80
2022-12-11T11:50:29.859Z,0.25
2022-12-11T11:53:06.005Z,0.32
2022-12-11T11:55:43.993Z,1.90
2022-12-11T11:58:19.297Z,3.00
2022-12-11T12:03:20.335Z,2.28
2022-12-11T12:05:56.435Z,1.10
2022-12-11T12:08:41.217Z,1.08
2022-12-11T12:11:23.300Z,0.70
2022-12-11T12:14:02.356Z,1.73
2022-12-11T12:16:52.579Z,1.40
2022-12-11T12:19:42.490Z,1.35
2022-12-11T12:22:29.077Z,1.08
2022-12-11T12:25:07.704Z,3.22
2022-12-11T12:27:53.193Z,1.90
2022-12-11T12:33:12.196Z,2.90
2022-12-11T12:35:51.586Z,2.67
2022-12-11T12:38:27.885Z,2.28
2022-12-11T12:41:14.136Z,4.28
2022-12-11T12:44:08.379Z,3.78
2022-12-11T12:46:50.428Z,3.50
2022-12-11T12:49:32.356Z,3.50
2022-12-11T12:52:04.253Z,4.78
2022-12-11T12:54:34.966Z,6.53
2022-12-11T12:57:05.375Z,6.22
2022-12-11T12:59:34.181Z,7.88
2022-12-11T13:02:06.593Z,5.18
2022-12-11T13:04:55.583Z,5.35
2022-12-11T13:07:29.955Z,7.60
2022-12-11T13:10:08.100Z,1.83
2022-12-11T13:12:45.395Z,2.75
2022-12-11T13:15:33.597Z,5.47
2022-12-11T13:18:04.563Z,3.33
2022-12-11T13:20:35.533Z,1.13
2022-12-11T13:23:19.083Z,1.08
2022-12-11T13:25:51.492Z,1.80
2022-12-11T13:28:26.748Z,6.43
2022-12-11T13:31:04.915Z,4.07
2022-12-11T13:33:34.612Z,5.00
2022-12-11T13:36:24.776Z,4.07
2022-12-11T13:38:58.185Z,7.53
2022-12-11T13:41:28.176Z,16.92
2022-12-11T13:43:58.932Z,20.00
2022-12-11T13:46:30.708Z,12.73
2022-12-11T13:49:02.283Z,13.52
2022-12-11T13:51:35.309Z,12.63
2022-12-11T13:54:11.558Z,9.40
2022-12-11T13:56:53.657Z,9.68
2022-12-11T13:59:27.362Z,12.25
2022-12-11T14:02:02.147Z,8.68
2022-12-11T14:04:32.887Z,8.30
2022-12-11T14:07:03.260Z,10.55
2022-12-11T14:09:34.069Z,8.10
2022-12-11T14:12:04.032Z,6.90
2022-12-11T14:14:41.352Z,6.03
2022-12-11T14:17:15.720Z,5.07
2022-12-11T14:19:48.500Z,4.53
2022-12-11T14:22:22.772Z,9.25
2022-12-11T14:24:55.054Z,5.90
2022-12-11T14:27:24.730Z,4.18
2022-12-11T14:29:53.801Z,3.28
2022-12-11T14:32:32.360Z,1.38
2022-12-11T14:35:03.164Z,2.35
2022-12-11T14:37:33.210Z,5.90
2022-12-11T14:40:08.206Z,3.83
2022-12-11T14:42:42.283Z,1.05
2022-12-11T14:45:21.073Z,1.50
2022-12-11T14:47:52.782Z,0.90
2022-12-11T14:50:27.338Z,0.50
2022-12-11T14:53:00.839Z,0.60
2022-12-11T14:55:34.903Z,0.95
2022-12-11T14:58:07.767Z,1.00
2022-12-11T15:00:38.190Z,1.08
2022-12-11T15:03:22.221Z,1.27
2022-12-11T15:05:52.905Z,1.20
2022-12-11T15:08:25.630Z,1.02
2022-12-11T15:11:05.258Z,0.90
2022-12-11T15:13:36.215Z,0.50
2022-12-11T15:16:07.778Z,0.82
2022-12-11T15:18:39.563Z,1.08
2022-12-11T15:21:11.043Z,1.02
2022-12-11T15:23:51.096Z,0.65
2022-12-11T15:26:22.515Z,1.33
2022-12-11T15:29:00.731Z,1.67
2022-12-11T15:31:31.973Z,1.40
2022-12-11T15:34:00.971Z,0.85
2022-12-11T15:36:35.188Z,1.35
2022-12-11T15:39:05.656Z,1.33
2022-12-11T15:41:36.168Z,0.90
2022-12-11T15:44:05.679Z,1.63
2022-12-11T15:46:37.566Z,1.02
2022-12-11T15:49:12.574Z,0.65
2022-12-11T15:51:43.371Z,0.70
2022-12-11T15:54:12.602Z,0.30
2022-12-11T15:56:42.893Z,1.00
2022-12-11T15:59:12.852Z,0.90
2022-12-11T16:01:41.849Z,2.35
2022-12-11T16:04:12.312Z,0.65
2022-12-11T16:06:45.275Z,1.00
2022-12-11T16:09:14.725Z,0.98
2022-12-11T16:11:44.919Z,1.23
2022-12-11T16:14:13.815Z,1.67
2022-12-11T16:16:42.636Z,1.65
2022-12-11T16:19:11.464Z,1.92
2022-12-11T16:21:40.833Z,9.13
2022-12-11T16:24:09.720Z,3.42
2022-12-11T16:26:38.601Z,3.55
2022-12-11T16:29:08.823Z,3.40
2022-12-11T16:31:37.719Z,3.17
2022-12-11T16:34:06.583Z,2.55
2022-12-11T16:36:35.542Z,3.88
2022-12-11T16:39:06.326Z,3.05
2022-12-11T16:41:35.305Z,1.58
2022-12-11T16:44:04.180Z,1.33
2022-12-11T16:46:34.579Z,3.63
2022-12-11T16:49:03.676Z,2.05
2022-12-11T16:51:32.654Z,2.28
2022-12-11T16:54:01.953Z,2.10
2022-12-11T16:56:30.816Z,2.08
2022-12-11T16:58:59.854Z,2.60
2022-12-11T17:01:29.029Z,2.47
2022-12-11T17:03:59.476Z,1.90
2022-12-11T17:06:28.341Z,2.15
2022-12-11T17:08:58.159Z,1.92
2022-12-11T17:11:27.138Z,1.55
2022-12-11T17:13:57.031Z,3.65
2022-12-11T17:16:29.106Z,4.13
2022-12-11T17:18:59.536Z,2.33
2022-12-11T17:21:28.383Z,1.90
2022-12-11T17:23:57.403Z,1.50
2022-12-11T17:26:28.115Z,2.28
2022-12-11T17:28:57.977Z,1.35
2022-12-11T17:31:27.509Z,1.45
2022-12-11T17:33:57.440Z,1.33
2022-12-11T17:36:28.554Z,1.58
2022-12-11T17:38:58.195Z,1.75
2022-12-11T17:41:27.173Z,1.17
2022-12-11T17:43:57.026Z,0.98
2022-12-11T17:46:28.688Z,1.17
2022-12-11T17:49:00.091Z,1.20
2022-12-11T17:51:31.076Z,0.82
2022-12-11T17:54:00.148Z,1.15
2022-12-11T17:56:30.404Z,1.17
2022-12-11T17:58:59.701Z,1.10
2022-12-11T18:01:28.684Z,1.33
2022-12-11T18:04:00.157Z,2.10
2022-12-11T18:06:31.986Z,1.23
2022-12-11T18:09:01.268Z,1.50
2022-12-11T18:11:30.772Z,1.42
2022-12-11T18:13:59.728Z,2.30
2022-12-11T18:16:31.113Z,1.08
2022-12-11T18:19:00.273Z,1.20
2022-12-11T18:21:33.977Z,1.17
2022-12-11T18:24:03.366Z,1.40
2022-12-11T18:26:32.441Z,1.42
2022-12-11T18:29:02.056Z,1.23
2022-12-11T18:31:31.554Z,1.48
2022-12-11T18:34:01.013Z,1.80
2022-12-11T18:36:30.501Z,7.40
2022-12-11T18:39:02.803Z,1.20
2022-12-11T18:41:31.702Z,1.20
2022-12-11T18:44:04.008Z,1.48
2022-12-11T18:46:36.906Z,1.20
2022-12-11T18:49:05.787Z,1.20
2022-12-11T18:51:34.592Z,1.67
2022-12-11T18:54:05.800Z,1.33
2022-12-11T18:56:34.576Z,1.08
2022-12-11T18:59:04.629Z,1.70
2022-12-11T19:01:34.650Z,1.13
2022-12-11T19:04:07.895Z,1.77
2022-12-11T19:06:39.793Z,1.63
2022-12-11T19:09:10.351Z,1.90
2022-12-11T19:11:41.784Z,2.15
2022-12-11T19:14:11.121Z,1.55
2022-12-11T19:16:42.313Z,1.98
2022-12-11T19:19:15.234Z,1.73
2022-12-11T19:21:44.682Z,1.20
2022-12-11T19:24:16.851Z,2.38
2022-12-11T19:26:47.354Z,2.10
2022-12-11T19:29:21.443Z,1.42
2022-12-11T19:31:50.388Z,2.55
2022-12-11T19:34:19.515Z,1.67
2022-12-11T19:36:48.428Z,2.35
2022-12-11T19:39:19.745Z,1.58
2022-12-11T19:41:49.371Z,1.80
2022-12-11T19:44:18.313Z,1.70
2022-12-11T19:46:47.203Z,1.65
2022-12-11T19:49:17.341Z,2.15
2022-12-11T19:51:46.257Z,2.50
2022-12-11T19:54:16.904Z,2.38
2022-12-11T19:56:47.195Z,1.67
2022-12-11T19:59:18.013Z,2.33
2022-12-11T20:01:48.141Z,2.03
2022-12-11T20:04:18.308Z,2.78
2022-12-11T20:06:48.204Z,2.42
2022-12-11T20:09:18.114Z,2.40
2022-12-11T20:11:48.714Z,2.60
2022-12-11T20:14:22.543Z,2.55
2022-12-11T20:19:41.724Z,3.20
2022-12-11T20:22:11.143Z,4.20
2022-12-11T20:24:40.144Z,2.83
2022-12-11T20:27:12.540Z,3.22
2022-12-11T20:29:41.451Z,2.80
2022-12-11T20:32:12.358Z,3.10
2022-12-11T20:34:41.349Z,5.90
2022-12-11T20:37:10.250Z,3.50
2022-12-11T20:39:39.142Z,5.63
2022-12-11T20:42:11.870Z,3.95
2022-12-11T20:44:44.191Z,3.85
2022-12-11T20:47:19.693Z,3.88
2022-12-11T20:49:49.337Z,4.07
2022-12-11T20:52:18.463Z,2.72
2022-12-11T20:54:48.602Z,2.50
2022-12-11T20:57:18.840Z,2.65
2022-12-11T20:59:49.198Z,2.35
2022-12-11T21:02:18.146Z,2.85
2022-12-11T21:04:46.998Z,3.40
2022-12-11T21:07:15.897Z,2.72
2022-12-11T21:09:44.795Z,3.30
2022-12-11T21:12:13.603Z,2.13
2022-12-11T21:14:44.205Z,2.83
2022-12-11T21:17:13.043Z,3.03
2022-12-11T21:19:41.854Z,1.98
2022-12-11T21:22:11.654Z,2.78
2022-12-11T21:24:41.713Z,2.80
2022-12-11T21:27:10.602Z,2.20
2022-12-11T21:29:39.393Z,2.35
2022-12-11T21:32:09.858Z,2.38
2022-12-11T21:34:38.984Z,2.92
2022-12-11T21:37:07.808Z,2.75
2022-12-11T21:39:39.429Z,3.45
2022-12-11T21:42:08.562Z,3.40
2022-12-11T21:47:27.960Z,4.22
2022-12-11T21:49:56.853Z,4.15
2022-12-11T21:52:25.782Z,3.97
2022-12-11T21:54:54.605Z,2.85
2022-12-11T21:57:26.533Z,3.30
2022-12-11T21:59:55.789Z,6.72
2022-12-11T22:02:24.729Z,6.40
2022-12-11T22:04:55.017Z,3.28
2022-12-11T22:07:23.963Z,3.45
2022-12-11T22:09:52.824Z,3.65
2022-12-11T22:12:24.635Z,3.35
2022-12-11T22:14:53.644Z,3.72
2022-12-11T22:17:22.655Z,3.17
2022-12-11T22:19:52.015Z,3.15
2022-12-11T22:22:22.389Z,3.15
2022-12-11T22:24:51.592Z,3.40
2022-12-11T22:27:23.634Z,3.05
2022-12-11T22:29:52.788Z,2.70
2022-12-11T22:32:21.655Z,4.82
2022-12-11T22:34:50.500Z,4.30
2022-12-11T22:37:19.474Z,3.20
2022-12-11T22:39:49.850Z,3.00
2022-12-11T22:42:18.815Z,4.55
2022-12-11T22:44:47.752Z,3.95
2022-12-11T22:47:18.064Z,4.10
2022-12-11T22:49:47.051Z,4.60
2022-12-11T22:52:16.342Z,3.95
2022-12-11T22:54:45.150Z,4.45
2022-12-11T22:57:15.603Z,5.32
2022-12-11T22:59:44.505Z,5.20
2022-12-11T23:02:13.755Z,4.55
2022-12-11T23:04:42.733Z,5.63
2022-12-11T23:07:11.863Z,5.30
2022-12-11T23:09:40.842Z,3.95
2022-12-11T23:12:09.980Z,5.00
2022-12-11T23:14:40.319Z,5.03
2022-12-11T23:17:18.816Z,4.42
2022-12-11T23:19:47.727Z,5.95
2022-12-11T23:22:16.583Z,3.72
2022-12-11T23:24:45.701Z,4.80
2022-12-11T23:27:15.352Z,3.65
2022-12-11T23:29:45.763Z,3.78
2022-12-11T23:32:14.615Z,5.10
2022-12-11T23:34:43.406Z,3.92
2022-12-11T23:37:12.348Z,5.30
2022-12-11T23:39:41.296Z,6.10
2022-12-11T23:42:10.509Z,4.90
2022-12-11T23:44:39.422Z,6.30
2022-12-11T23:47:10.239Z,5.88
2022-12-11T23:49:39.102Z,4.90
2022-12-11T23:52:08.685Z,7.13
2022-12-11T23:54:37.545Z,5.28
2022-12-11T23:57:06.372Z,6.30
2022-12-11T23:59:35.149Z,6.10
